sensor_id;sensor_type;location;lat;lon;timestamp;P1;durP1;ratioP1;P2;durP2;ratioP2
79076;SDS011;68477;42.698;23.342;2024-02-21T00:02:11;9.13;;;5.22;;
79076;SDS011;68477;42.698;23.342;2024-02-21T00:04:36;7.85;;;4.88;;
79076;SDS011;68477;42.698;23.342;2024-02-21T00:07:03;8.73;;;5.20;;
79076;SDS011;68477;42.698;23.342;2024-02-21T00:09:29;8.70;;;5.47;;
79076;SDS011;68477;42.698;23.342;2024-02-21T00:11:55;8.07;;;5.68;;
79076;SDS011;68477;42.698;23.342;2024-02-21T00:14:20;8.07;;;4.53;;
79076;SDS011;68477;42.698;23.342;2024-02-21T00:16:46;7.05;;;4.53;;
79076;SDS011;68477;42.698;23.342;2024-02-21T00:19:12;7.97;;;4.70;;
79076;SDS011;68477;42.698;23.342;2024-02-21T00:21:38;8.63;;;5.50;;
79076;SDS011;68477;42.698;23.342;2024-02-21T00:24:06;10.25;;;5.03;;
79076;SDS011;68477;42.698;23.342;2024-02-21T00:26:32;8.80;;;4.80;;
79076;SDS011;68477;42.698;23.342;2024-02-21T00:28:57;11.02;;;5.15;;
79076;SDS011;68477;42.698;23.342;2024-02-21T00:31:23;7.43;;;5.30;;
79076;SDS011;68477;42.698;23.342;2024-02-21T00:33:48;8.05;;;4.95;;
79076;SDS011;68477;42.698;23.342;2024-02-21T00:36:14;9.43;;;5.80;;
79076;SDS011;68477;42.698;23.342;2024-02-21T00:38:40;9.25;;;5.10;;
79076;SDS011;68477;42.698;23.342;2024-02-21T00:41:06;8.18;;;4.68;;
79076;SDS011;68477;42.698;23.342;2024-02-21T00:43:32;6.72;;;4.30;;
79076;SDS011;68477;42.698;23.342;2024-02-21T00:45:58;6.32;;;4.40;;
79076;SDS011;68477;42.698;23.342;2024-02-21T00:48:23;6.63;;;4.15;;
79076;SDS011;68477;42.698;23.342;2024-02-21T00:50:49;7.32;;;4.30;;
79076;SDS011;68477;42.698;23.342;2024-02-21T00:53:14;7.32;;;4.00;;
79076;SDS011;68477;42.698;23.342;2024-02-21T00:55:40;7.25;;;4.75;;
79076;SDS011;68477;42.698;23.342;2024-02-21T00:58:05;6.65;;;4.35;;
79076;SDS011;68477;42.698;23.342;2024-02-21T01:00:31;6.20;;;4.38;;
79076;SDS011;68477;42.698;23.342;2024-02-21T01:02:57;7.13;;;4.47;;
79076;SDS011;68477;42.698;23.342;2024-02-21T01:05:22;6.40;;;4.60;;
79076;SDS011;68477;42.698;23.342;2024-02-21T01:07:48;8.32;;;4.68;;
79076;SDS011;68477;42.698;23.342;2024-02-21T01:10:13;7.07;;;4.50;;
79076;SDS011;68477;42.698;23.342;2024-02-21T01:12:39;6.93;;;4.70;;
79076;SDS011;68477;42.698;23.342;2024-02-21T01:15:04;6.78;;;4.40;;
79076;SDS011;68477;42.698;23.342;2024-02-21T01:17:31;8.35;;;4.72;;
79076;SDS011;68477;42.698;23.342;2024-02-21T01:19:57;8.65;;;4.70;;
79076;SDS011;68477;42.698;23.342;2024-02-21T01:22:22;8.18;;;4.55;;
79076;SDS011;68477;42.698;23.342;2024-02-21T01:24:48;8.27;;;5.05;;
79076;SDS011;68477;42.698;23.342;2024-02-21T01:27:13;7.80;;;4.45;;
79076;SDS011;68477;42.698;23.342;2024-02-21T01:29:39;8.35;;;5.28;;
79076;SDS011;68477;42.698;23.342;2024-02-21T01:32:04;9.10;;;4.95;;
79076;SDS011;68477;42.698;23.342;2024-02-21T01:34:31;8.25;;;4.78;;
79076;SDS011;68477;42.698;23.342;2024-02-21T01:36:57;8.95;;;5.53;;
79076;SDS011;68477;42.698;23.342;2024-02-21T01:39:22;8.93;;;5.50;;
79076;SDS011;68477;42.698;23.342;2024-02-21T01:41:48;7.97;;;4.53;;
79076;SDS011;68477;42.698;23.342;2024-02-21T01:44:13;8.40;;;5.40;;
79076;SDS011;68477;42.698;23.342;2024-02-21T01:46:39;8.48;;;4.68;;
79076;SDS011;68477;42.698;23.342;2024-02-21T01:49:04;8.50;;;5.07;;
79076;SDS011;68477;42.698;23.342;2024-02-21T01:51:30;9.13;;;6.05;;
79076;SDS011;68477;42.698;23.342;2024-02-21T01:53:56;16.90;;;7.75;;
79076;SDS011;68477;42.698;23.342;2024-02-21T01:56:23;11.80;;;6.28;;
79076;SDS011;68477;42.698;23.342;2024-02-21T01:58:49;12.25;;;6.60;;
79076;SDS011;68477;42.698;23.342;2024-02-21T02:01:16;11.88;;;6.47;;
79076;SDS011;68477;42.698;23.342;2024-02-21T02:03:42;10.93;;;6.10;;
79076;SDS011;68477;42.698;23.342;2024-02-21T02:06:08;11.65;;;5.97;;
79076;SDS011;68477;42.698;23.342;2024-02-21T02:08:33;9.90;;;5.43;;
79076;SDS011;68477;42.698;23.342;2024-02-21T02:10:59;8.45;;;5.10;;
79076;SDS011;68477;42.698;23.342;2024-02-21T02:13:26;7.50;;;4.65;;
79076;SDS011;68477;42.698;23.342;2024-02-21T02:15:52;7.30;;;4.82;;
79076;SDS011;68477;42.698;23.342;2024-02-21T02:18:19;9.77;;;5.15;;
79076;SDS011;68477;42.698;23.342;2024-02-21T02:20:45;7.38;;;5.13;;
79076;SDS011;68477;42.698;23.342;2024-02-21T02:23:12;10.63;;;5.82;;
79076;SDS011;68477;42.698;23.342;2024-02-21T02:25:45;11.63;;;5.85;;
79076;SDS011;68477;42.698;23.342;2024-02-21T02:28:17;11.20;;;6.22;;
79076;SDS011;68477;42.698;23.342;2024-02-21T02:30:42;10.35;;;6.07;;
79076;SDS011;68477;42.698;23.342;2024-02-21T02:33:08;8.20;;;5.38;;
79076;SDS011;68477;42.698;23.342;2024-02-21T02:35:34;11.07;;;5.55;;
79076;SDS011;68477;42.698;23.342;2024-02-21T02:38:01;9.57;;;6.60;;
79076;SDS011;68477;42.698;23.342;2024-02-21T02:40:27;9.05;;;6.05;;
79076;SDS011;68477;42.698;23.342;2024-02-21T02:42:53;10.20;;;6.53;;
79076;SDS011;68477;42.698;23.342;2024-02-21T02:45:20;12.25;;;6.55;;
79076;SDS011;68477;42.698;23.342;2024-02-21T02:47:48;10.65;;;6.53;;
79076;SDS011;68477;42.698;23.342;2024-02-21T02:50:13;11.85;;;6.85;;
79076;SDS011;68477;42.698;23.342;2024-02-21T02:52:39;11.43;;;6.28;;
79076;SDS011;68477;42.698;23.342;2024-02-21T02:55:05;11.20;;;6.82;;
79076;SDS011;68477;42.698;23.342;2024-02-21T02:57:32;10.45;;;6.47;;
79076;SDS011;68477;42.698;23.342;2024-02-21T02:59:57;11.50;;;6.65;;
79076;SDS011;68477;42.698;23.342;2024-02-21T03:02:23;12.65;;;7.72;;
79076;SDS011;68477;42.698;23.342;2024-02-21T03:04:48;10.75;;;6.18;;
79076;SDS011;68477;42.698;23.342;2024-02-21T03:07:14;10.60;;;6.80;;
79076;SDS011;68477;42.698;23.342;2024-02-21T03:09:40;14.23;;;7.18;;
79076;SDS011;68477;42.698;23.342;2024-02-21T03:12:09;11.80;;;7.40;;
79076;SDS011;68477;42.698;23.342;2024-02-21T03:14:35;13.13;;;7.78;;
79076;SDS011;68477;42.698;23.342;2024-02-21T03:17:01;13.38;;;7.30;;
79076;SDS011;68477;42.698;23.342;2024-02-21T03:19:27;11.95;;;6.72;;
79076;SDS011;68477;42.698;23.342;2024-02-21T03:21:53;14.25;;;8.10;;
79076;SDS011;68477;42.698;23.342;2024-02-21T03:24:19;13.13;;;8.10;;
79076;SDS011;68477;42.698;23.342;2024-02-21T03:26:45;14.27;;;8.23;;
79076;SDS011;68477;42.698;23.342;2024-02-21T03:29:12;12.23;;;7.57;;
79076;SDS011;68477;42.698;23.342;2024-02-21T03:31:38;14.65;;;7.70;;
79076;SDS011;68477;42.698;23.342;2024-02-21T03:34:04;15.50;;;9.02;;
79076;SDS011;68477;42.698;23.342;2024-02-21T03:36:29;14.60;;;7.65;;
79076;SDS011;68477;42.698;23.342;2024-02-21T03:38:55;12.95;;;7.80;;
79076;SDS011;68477;42.698;23.342;2024-02-21T03:41:20;16.10;;;7.97;;
79076;SDS011;68477;42.698;23.342;2024-02-21T03:43:46;13.57;;;7.75;;
79076;SDS011;68477;42.698;23.342;2024-02-21T03:46:12;16.58;;;8.30;;
79076;SDS011;68477;42.698;23.342;2024-02-21T03:48:38;14.65;;;8.85;;
79076;SDS011;68477;42.698;23.342;2024-02-21T03:51:04;12.85;;;7.50;;
79076;SDS011;68477;42.698;23.342;2024-02-21T03:53:30;12.73;;;7.82;;
79076;SDS011;68477;42.698;23.342;2024-02-21T03:55:55;11.15;;;6.82;;
79076;SDS011;68477;42.698;23.342;2024-02-21T03:58:21;16.73;;;9.18;;
79076;SDS011;68477;42.698;23.342;2024-02-21T04:00:47;15.20;;;8.57;;
79076;SDS011;68477;42.698;23.342;2024-02-21T04:03:13;14.32;;;7.88;;
79076;SDS011;68477;42.698;23.342;2024-02-21T04:05:38;15.00;;;8.88;;
79076;SDS011;68477;42.698;23.342;2024-02-21T04:08:04;13.63;;;8.15;;
79076;SDS011;68477;42.698;23.342;2024-02-21T04:10:30;12.38;;;8.00;;
79076;SDS011;68477;42.698;23.342;2024-02-21T04:12:56;13.98;;;8.38;;
79076;SDS011;68477;42.698;23.342;2024-02-21T04:15:21;15.02;;;8.05;;
79076;SDS011;68477;42.698;23.342;2024-02-21T04:17:47;14.85;;;8.63;;
79076;SDS011;68477;42.698;23.342;2024-02-21T04:20:16;14.07;;;8.55;;
79076;SDS011;68477;42.698;23.342;2024-02-21T04:22:45;14.95;;;7.68;;
79076;SDS011;68477;42.698;23.342;2024-02-21T04:25:11;12.73;;;7.50;;
79076;SDS011;68477;42.698;23.342;2024-02-21T04:27:38;12.98;;;7.68;;
79076;SDS011;68477;42.698;23.342;2024-02-21T04:30:04;12.35;;;7.78;;
79076;SDS011;68477;42.698;23.342;2024-02-21T04:32:31;13.25;;;7.97;;
79076;SDS011;68477;42.698;23.342;2024-02-21T04:34:57;12.52;;;7.07;;
79076;SDS011;68477;42.698;23.342;2024-02-21T04:37:23;14.38;;;8.43;;
79076;SDS011;68477;42.698;23.342;2024-02-21T04:39:49;12.48;;;7.90;;
79076;SDS011;68477;42.698;23.342;2024-02-21T04:42:15;17.13;;;9.23;;
79076;SDS011;68477;42.698;23.342;2024-02-21T04:44:41;15.60;;;8.88;;
79076;SDS011;68477;42.698;23.342;2024-02-21T04:47:07;14.70;;;8.55;;
79076;SDS011;68477;42.698;23.342;2024-02-21T04:49:33;13.90;;;8.18;;
79076;SDS011;68477;42.698;23.342;2024-02-21T04:51:58;14.38;;;9.35;;
79076;SDS011;68477;42.698;23.342;2024-02-21T04:54:24;12.20;;;8.20;;
79076;SDS011;68477;42.698;23.342;2024-02-21T04:56:50;14.23;;;8.63;;
79076;SDS011;68477;42.698;23.342;2024-02-21T04:59:16;16.90;;;9.40;;
79076;SDS011;68477;42.698;23.342;2024-02-21T05:01:42;15.75;;;9.00;;
79076;SDS011;68477;42.698;23.342;2024-02-21T05:04:07;12.27;;;8.13;;
79076;SDS011;68477;42.698;23.342;2024-02-21T05:06:39;14.10;;;8.48;;
79076;SDS011;68477;42.698;23.342;2024-02-21T05:09:06;14.93;;;7.50;;
79076;SDS011;68477;42.698;23.342;2024-02-21T05:11:33;14.32;;;8.05;;
79076;SDS011;68477;42.698;23.342;2024-02-21T05:13:59;13.55;;;8.30;;
79076;SDS011;68477;42.698;23.342;2024-02-21T05:16:25;14.95;;;9.25;;
79076;SDS011;68477;42.698;23.342;2024-02-21T05:18:50;14.93;;;9.02;;
79076;SDS011;68477;42.698;23.342;2024-02-21T05:21:16;13.75;;;9.15;;
79076;SDS011;68477;42.698;23.342;2024-02-21T05:23:41;18.95;;;9.25;;
79076;SDS011;68477;42.698;23.342;2024-02-21T05:26:07;17.33;;;9.85;;
79076;SDS011;68477;42.698;23.342;2024-02-21T05:28:32;16.27;;;9.63;;
79076;SDS011;68477;42.698;23.342;2024-02-21T05:30:58;20.55;;;11.35;;
79076;SDS011;68477;42.698;23.342;2024-02-21T05:33:23;22.08;;;11.00;;
79076;SDS011;68477;42.698;23.342;2024-02-21T05:35:49;23.92;;;10.80;;
79076;SDS011;68477;42.698;23.342;2024-02-21T05:38:15;18.35;;;10.32;;
79076;SDS011;68477;42.698;23.342;2024-02-21T05:40:41;20.35;;;11.93;;
79076;SDS011;68477;42.698;23.342;2024-02-21T05:43:07;17.80;;;11.13;;
79076;SDS011;68477;42.698;23.342;2024-02-21T05:45:33;19.67;;;10.45;;
79076;SDS011;68477;42.698;23.342;2024-02-21T05:48:00;18.33;;;9.98;;
79076;SDS011;68477;42.698;23.342;2024-02-21T05:50:27;17.30;;;10.98;;
79076;SDS011;68477;42.698;23.342;2024-02-21T05:52:55;20.25;;;10.70;;
79076;SDS011;68477;42.698;23.342;2024-02-21T05:55:21;18.77;;;9.75;;
79076;SDS011;68477;42.698;23.342;2024-02-21T05:57:47;15.50;;;9.65;;
79076;SDS011;68477;42.698;23.342;2024-02-21T06:00:13;18.30;;;10.57;;
79076;SDS011;68477;42.698;23.342;2024-02-21T06:02:40;20.95;;;10.80;;
79076;SDS011;68477;42.698;23.342;2024-02-21T06:05:06;17.27;;;9.70;;
79076;SDS011;68477;42.698;23.342;2024-02-21T06:07:34;19.08;;;9.35;;
79076;SDS011;68477;42.698;23.342;2024-02-21T06:10:01;18.13;;;10.27;;
79076;SDS011;68477;42.698;23.342;2024-02-21T06:12:27;19.42;;;10.88;;
79076;SDS011;68477;42.698;23.342;2024-02-21T06:14:52;21.20;;;10.15;;
79076;SDS011;68477;42.698;23.342;2024-02-21T06:17:19;16.63;;;9.70;;
79076;SDS011;68477;42.698;23.342;2024-02-21T06:19:45;19.67;;;10.40;;
79076;SDS011;68477;42.698;23.342;2024-02-21T06:22:12;16.17;;;8.95;;
79076;SDS011;68477;42.698;23.342;2024-02-21T06:24:37;17.70;;;10.13;;
79076;SDS011;68477;42.698;23.342;2024-02-21T06:27:03;17.27;;;10.20;;
79076;SDS011;68477;42.698;23.342;2024-02-21T06:29:31;18.35;;;10.90;;
79076;SDS011;68477;42.698;23.342;2024-02-21T06:31:56;18.58;;;10.38;;
79076;SDS011;68477;42.698;23.342;2024-02-21T06:34:22;18.15;;;10.55;;
79076;SDS011;68477;42.698;23.342;2024-02-21T06:36:49;22.40;;;12.68;;
79076;SDS011;68477;42.698;23.342;2024-02-21T06:39:14;18.23;;;10.48;;
79076;SDS011;68477;42.698;23.342;2024-02-21T06:41:41;20.13;;;12.27;;
79076;SDS011;68477;42.698;23.342;2024-02-21T06:44:06;20.35;;;11.35;;
79076;SDS011;68477;42.698;23.342;2024-02-21T06:46:32;17.17;;;10.98;;
79076;SDS011;68477;42.698;23.342;2024-02-21T06:48:58;24.70;;;11.55;;
79076;SDS011;68477;42.698;23.342;2024-02-21T06:51:25;23.35;;;11.95;;
79076;SDS011;68477;42.698;23.342;2024-02-21T06:53:51;20.13;;;11.52;;
79076;SDS011;68477;42.698;23.342;2024-02-21T06:56:17;24.83;;;13.27;;
79076;SDS011;68477;42.698;23.342;2024-02-21T06:58:42;20.50;;;11.50;;
79076;SDS011;68477;42.698;23.342;2024-02-21T07:01:10;26.02;;;14.05;;
79076;SDS011;68477;42.698;23.342;2024-02-21T07:03:35;23.00;;;13.13;;
79076;SDS011;68477;42.698;23.342;2024-02-21T07:06:01;24.92;;;13.85;;
79076;SDS011;68477;42.698;23.342;2024-02-21T07:08:27;21.33;;;12.05;;
79076;SDS011;68477;42.698;23.342;2024-02-21T07:10:52;23.80;;;12.45;;
79076;SDS011;68477;42.698;23.342;2024-02-21T07:13:18;24.48;;;14.02;;
79076;SDS011;68477;42.698;23.342;2024-02-21T07:15:43;28.48;;;12.23;;
79076;SDS011;68477;42.698;23.342;2024-02-21T07:18:09;20.67;;;11.85;;
79076;SDS011;68477;42.698;23.342;2024-02-21T07:20:36;24.13;;;12.52;;
79076;SDS011;68477;42.698;23.342;2024-02-21T07:23:02;21.67;;;11.90;;
79076;SDS011;68477;42.698;23.342;2024-02-21T07:25:28;25.75;;;13.73;;
79076;SDS011;68477;42.698;23.342;2024-02-21T07:27:54;22.50;;;12.98;;
79076;SDS011;68477;42.698;23.342;2024-02-21T07:30:19;23.45;;;13.38;;
79076;SDS011;68477;42.698;23.342;2024-02-21T07:32:45;23.83;;;12.13;;
79076;SDS011;68477;42.698;23.342;2024-02-21T07:35:10;20.77;;;12.35;;
79076;SDS011;68477;42.698;23.342;2024-02-21T07:37:37;21.05;;;11.77;;
79076;SDS011;68477;42.698;23.342;2024-02-21T07:40:06;27.13;;;11.13;;
79076;SDS011;68477;42.698;23.342;2024-02-21T07:42:42;20.77;;;10.45;;
79076;SDS011;68477;42.698;23.342;2024-02-21T07:45:08;17.50;;;8.55;;
79076;SDS011;68477;42.698;23.342;2024-02-21T07:47:35;20.63;;;11.18;;
79076;SDS011;68477;42.698;23.342;2024-02-21T07:50:02;20.30;;;10.93;;
79076;SDS011;68477;42.698;23.342;2024-02-21T07:52:28;19.30;;;11.35;;
79076;SDS011;68477;42.698;23.342;2024-02-21T07:54:54;20.40;;;9.63;;
79076;SDS011;68477;42.698;23.342;2024-02-21T07:57:20;16.95;;;9.75;;
79076;SDS011;68477;42.698;23.342;2024-02-21T07:59:45;22.65;;;11.07;;
79076;SDS011;68477;42.698;23.342;2024-02-21T08:02:13;19.42;;;10.57;;
79076;SDS011;68477;42.698;23.342;2024-02-21T08:04:41;19.75;;;10.15;;
79076;SDS011;68477;42.698;23.342;2024-02-21T08:07:07;22.58;;;11.57;;
79076;SDS011;68477;42.698;23.342;2024-02-21T08:09:34;19.38;;;10.98;;
79076;SDS011;68477;42.698;23.342;2024-02-21T08:12:00;17.58;;;9.13;;
79076;SDS011;68477;42.698;23.342;2024-02-21T08:14:25;20.92;;;11.13;;
79076;SDS011;68477;42.698;23.342;2024-02-21T08:16:51;21.73;;;11.50;;
79076;SDS011;68477;42.698;23.342;2024-02-21T08:21:46;21.25;;;10.95;;
79076;SDS011;68477;42.698;23.342;2024-02-21T08:24:12;21.05;;;11.98;;
79076;SDS011;68477;42.698;23.342;2024-02-21T08:26:41;17.73;;;11.02;;
79076;SDS011;68477;42.698;23.342;2024-02-21T08:29:07;19.23;;;11.23;;
79076;SDS011;68477;42.698;23.342;2024-02-21T08:31:33;19.13;;;9.75;;
79076;SDS011;68477;42.698;23.342;2024-02-21T08:33:59;23.58;;;10.90;;
79076;SDS011;68477;42.698;23.342;2024-02-21T08:36:38;22.73;;;11.82;;
79076;SDS011;68477;42.698;23.342;2024-02-21T08:39:03;20.17;;;10.98;;
79076;SDS011;68477;42.698;23.342;2024-02-21T08:41:32;17.90;;;9.80;;
79076;SDS011;68477;42.698;23.342;2024-02-21T08:43:59;21.67;;;11.68;;
79076;SDS011;68477;42.698;23.342;2024-02-21T08:46:24;19.20;;;9.40;;
79076;SDS011;68477;42.698;23.342;2024-02-21T08:48:50;24.45;;;13.38;;
79076;SDS011;68477;42.698;23.342;2024-02-21T08:51:16;20.55;;;12.02;;
79076;SDS011;68477;42.698;23.342;2024-02-21T08:53:43;26.77;;;13.10;;
79076;SDS011;68477;42.698;23.342;2024-02-21T08:56:09;18.30;;;10.13;;
79076;SDS011;68477;42.698;23.342;2024-02-21T08:58:35;16.77;;;9.85;;
79076;SDS011;68477;42.698;23.342;2024-02-21T09:01:04;17.05;;;10.52;;
79076;SDS011;68477;42.698;23.342;2024-02-21T09:03:32;15.35;;;9.73;;
79076;SDS011;68477;42.698;23.342;2024-02-21T09:05:58;19.50;;;10.90;;
79076;SDS011;68477;42.698;23.342;2024-02-21T09:08:30;16.30;;;9.13;;
79076;SDS011;68477;42.698;23.342;2024-02-21T09:10:57;15.55;;;9.82;;
79076;SDS011;68477;42.698;23.342;2024-02-21T09:13:23;15.68;;;9.15;;
79076;SDS011;68477;42.698;23.342;2024-02-21T09:15:49;17.02;;;8.80;;
79076;SDS011;68477;42.698;23.342;2024-02-21T09:18:15;18.60;;;8.90;;
79076;SDS011;68477;42.698;23.342;2024-02-21T09:20:41;13.75;;;8.68;;
79076;SDS011;68477;42.698;23.342;2024-02-21T09:23:07;18.63;;;9.75;;
79076;SDS011;68477;42.698;23.342;2024-02-21T09:25:33;20.13;;;9.80;;
79076;SDS011;68477;42.698;23.342;2024-02-21T09:28:00;19.15;;;11.35;;
79076;SDS011;68477;42.698;23.342;2024-02-21T09:30:27;17.42;;;10.60;;
79076;SDS011;68477;42.698;23.342;2024-02-21T09:32:52;14.80;;;9.13;;
79076;SDS011;68477;42.698;23.342;2024-02-21T09:35:18;16.00;;;9.20;;
79076;SDS011;68477;42.698;23.342;2024-02-21T09:37:44;16.65;;;10.10;;
79076;SDS011;68477;42.698;23.342;2024-02-21T09:40:09;15.95;;;9.98;;
79076;SDS011;68477;42.698;23.342;2024-02-21T09:42:38;13.68;;;8.57;;
79076;SDS011;68477;42.698;23.342;2024-02-21T09:45:07;15.10;;;8.73;;
79076;SDS011;68477;42.698;23.342;2024-02-21T09:48:00;14.95;;;8.25;;
79076;SDS011;68477;42.698;23.342;2024-02-21T09:50:35;14.70;;;9.20;;
79076;SDS011;68477;42.698;23.342;2024-02-21T09:53:05;14.38;;;8.60;;
79076;SDS011;68477;42.698;23.342;2024-02-21T09:55:33;14.48;;;7.20;;
79076;SDS011;68477;42.698;23.342;2024-02-21T09:58:00;15.43;;;9.40;;
79076;SDS011;68477;42.698;23.342;2024-02-21T10:00:27;12.82;;;8.05;;
79076;SDS011;68477;42.698;23.342;2024-02-21T10:02:53;14.77;;;9.85;;
79076;SDS011;68477;42.698;23.342;2024-02-21T10:05:19;13.30;;;8.38;;
79076;SDS011;68477;42.698;23.342;2024-02-21T10:07:45;13.50;;;9.07;;
79076;SDS011;68477;42.698;23.342;2024-02-21T10:10:11;14.00;;;8.70;;
79076;SDS011;68477;42.698;23.342;2024-02-21T10:12:36;15.10;;;8.57;;
79076;SDS011;68477;42.698;23.342;2024-02-21T10:15:13;13.48;;;8.45;;
79076;SDS011;68477;42.698;23.342;2024-02-21T10:17:38;12.60;;;8.77;;
79076;SDS011;68477;42.698;23.342;2024-02-21T10:20:08;11.88;;;7.40;;
79076;SDS011;68477;42.698;23.342;2024-02-21T10:22:34;15.23;;;9.65;;
79076;SDS011;68477;42.698;23.342;2024-02-21T10:25:13;11.00;;;7.05;;
79076;SDS011;68477;42.698;23.342;2024-02-21T10:27:39;14.85;;;7.50;;
79076;SDS011;68477;42.698;23.342;2024-02-21T10:30:12;14.70;;;8.32;;
79076;SDS011;68477;42.698;23.342;2024-02-21T10:32:49;11.63;;;7.35;;
79076;SDS011;68477;42.698;23.342;2024-02-21T10:37:54;13.75;;;7.20;;
79076;SDS011;68477;42.698;23.342;2024-02-21T10:40:24;10.73;;;7.88;;
79076;SDS011;68477;42.698;23.342;2024-02-21T10:42:53;10.23;;;6.47;;
79076;SDS011;68477;42.698;23.342;2024-02-21T10:45:29;9.25;;;6.60;;
79076;SDS011;68477;42.698;23.342;2024-02-21T10:48:00;13.40;;;7.68;;
79076;SDS011;68477;42.698;23.342;2024-02-21T10:56:11;10.90;;;6.90;;
79076;SDS011;68477;42.698;23.342;2024-02-21T10:58:40;9.05;;;5.78;;
79076;SDS011;68477;42.698;23.342;2024-02-21T11:01:07;11.65;;;7.15;;
79076;SDS011;68477;42.698;23.342;2024-02-21T11:03:33;9.52;;;6.72;;
79076;SDS011;68477;42.698;23.342;2024-02-21T11:05:58;8.73;;;5.72;;
79076;SDS011;68477;42.698;23.342;2024-02-21T11:08:25;7.93;;;5.63;;
79076;SDS011;68477;42.698;23.342;2024-02-21T11:10:56;10.80;;;6.07;;
79076;SDS011;68477;42.698;23.342;2024-02-21T11:13:29;8.57;;;5.28;;
79076;SDS011;68477;42.698;23.342;2024-02-21T11:16:09;5.30;;;3.42;;
79076;SDS011;68477;42.698;23.342;2024-02-21T11:18:38;9.23;;;4.35;;
79076;SDS011;68477;42.698;23.342;2024-02-21T11:21:04;7.53;;;4.88;;
79076;SDS011;68477;42.698;23.342;2024-02-21T11:23:30;8.70;;;4.75;;
79076;SDS011;68477;42.698;23.342;2024-02-21T11:26:05;8.40;;;4.97;;
79076;SDS011;68477;42.698;23.342;2024-02-21T11:31:12;6.90;;;4.35;;
79076;SDS011;68477;42.698;23.342;2024-02-21T11:33:41;6.93;;;4.70;;
79076;SDS011;68477;42.698;23.342;2024-02-21T11:36:09;5.82;;;4.18;;
79076;SDS011;68477;42.698;23.342;2024-02-21T11:38:35;7.15;;;4.80;;
79076;SDS011;68477;42.698;23.342;2024-02-21T11:41:00;10.07;;;5.85;;
79076;SDS011;68477;42.698;23.342;2024-02-21T11:43:26;7.78;;;4.65;;
79076;SDS011;68477;42.698;23.342;2024-02-21T11:45:59;10.23;;;5.03;;
79076;SDS011;68477;42.698;23.342;2024-02-21T11:48:29;6.82;;;4.85;;
79076;SDS011;68477;42.698;23.342;2024-02-21T11:50:55;9.93;;;5.82;;
79076;SDS011;68477;42.698;23.342;2024-02-21T11:53:22;7.15;;;4.90;;
79076;SDS011;68477;42.698;23.342;2024-02-21T11:55:48;8.93;;;4.97;;
79076;SDS011;68477;42.698;23.342;2024-02-21T11:58:14;8.20;;;4.53;;
79076;SDS011;68477;42.698;23.342;2024-02-21T12:00:40;8.27;;;5.35;;
79076;SDS011;68477;42.698;23.342;2024-02-21T12:03:06;8.60;;;4.97;;
79076;SDS011;68477;42.698;23.342;2024-02-21T12:05:32;8.05;;;4.68;;
79076;SDS011;68477;42.698;23.342;2024-02-21T12:07:57;6.50;;;4.45;;
79076;SDS011;68477;42.698;23.342;2024-02-21T12:10:23;9.77;;;5.70;;
79076;SDS011;68477;42.698;23.342;2024-02-21T12:12:51;7.50;;;4.78;;
79076;SDS011;68477;42.698;23.342;2024-02-21T12:15:17;7.45;;;5.28;;
79076;SDS011;68477;42.698;23.342;2024-02-21T12:17:44;8.93;;;5.53;;
79076;SDS011;68477;42.698;23.342;2024-02-21T12:20:10;8.55;;;5.47;;
79076;SDS011;68477;42.698;23.342;2024-02-21T12:22:39;7.38;;;5.07;;
79076;SDS011;68477;42.698;23.342;2024-02-21T12:25:16;6.72;;;4.20;;
79076;SDS011;68477;42.698;23.342;2024-02-21T12:27:48;7.40;;;4.75;;
79076;SDS011;68477;42.698;23.342;2024-02-21T12:30:14;8.77;;;5.50;;
79076;SDS011;68477;42.698;23.342;2024-02-21T12:32:40;7.90;;;5.38;;
79076;SDS011;68477;42.698;23.342;2024-02-21T12:35:06;9.55;;;5.20;;
79076;SDS011;68477;42.698;23.342;2024-02-21T12:37:32;8.07;;;5.18;;
79076;SDS011;68477;42.698;23.342;2024-02-21T12:39:58;9.05;;;5.57;;
79076;SDS011;68477;42.698;23.342;2024-02-21T12:42:24;7.70;;;5.10;;
79076;SDS011;68477;42.698;23.342;2024-02-21T12:44:51;11.93;;;5.50;;
79076;SDS011;68477;42.698;23.342;2024-02-21T12:47:19;9.25;;;5.75;;
79076;SDS011;68477;42.698;23.342;2024-02-21T12:49:48;11.13;;;6.40;;
79076;SDS011;68477;42.698;23.342;2024-02-21T12:52:14;10.60;;;6.53;;
79076;SDS011;68477;42.698;23.342;2024-02-21T12:54:40;10.70;;;6.82;;
79076;SDS011;68477;42.698;23.342;2024-02-21T12:57:05;10.02;;;7.10;;
79076;SDS011;68477;42.698;23.342;2024-02-21T12:59:33;11.70;;;7.07;;
79076;SDS011;68477;42.698;23.342;2024-02-21T13:01:59;13.82;;;6.82;;
79076;SDS011;68477;42.698;23.342;2024-02-21T13:04:24;13.75;;;7.53;;
79076;SDS011;68477;42.698;23.342;2024-02-21T13:06:50;16.65;;;7.40;;
79076;SDS011;68477;42.698;23.342;2024-02-21T13:09:16;11.93;;;6.90;;
79076;SDS011;68477;42.698;23.342;2024-02-21T13:11:41;11.00;;;7.43;;
79076;SDS011;68477;42.698;23.342;2024-02-21T13:14:09;11.38;;;6.60;;
79076;SDS011;68477;42.698;23.342;2024-02-21T13:16:35;10.50;;;6.70;;
79076;SDS011;68477;42.698;23.342;2024-02-21T13:19:04;10.80;;;6.88;;
79076;SDS011;68477;42.698;23.342;2024-02-21T13:21:34;12.15;;;7.55;;
79076;SDS011;68477;42.698;23.342;2024-02-21T13:24:00;9.32;;;6.05;;
79076;SDS011;68477;42.698;23.342;2024-02-21T13:26:27;10.52;;;7.20;;
79076;SDS011;68477;42.698;23.342;2024-02-21T13:28:53;10.77;;;6.38;;
79076;SDS011;68477;42.698;23.342;2024-02-21T13:31:19;8.88;;;5.82;;
79076;SDS011;68477;42.698;23.342;2024-02-21T13:33:45;8.43;;;5.10;;
79076;SDS011;68477;42.698;23.342;2024-02-21T13:36:10;8.55;;;5.28;;
79076;SDS011;68477;42.698;23.342;2024-02-21T13:38:36;8.27;;;5.53;;
79076;SDS011;68477;42.698;23.342;2024-02-21T13:41:04;9.23;;;5.80;;
79076;SDS011;68477;42.698;23.342;2024-02-21T13:43:32;8.13;;;5.53;;
79076;SDS011;68477;42.698;23.342;2024-02-21T13:46:01;9.52;;;5.53;;
79076;SDS011;68477;42.698;23.342;2024-02-21T13:48:30;8.80;;;6.35;;
79076;SDS011;68477;42.698;23.342;2024-02-21T13:50:56;9.77;;;6.22;;
79076;SDS011;68477;42.698;23.342;2024-02-21T13:53:22;11.57;;;6.25;;
79076;SDS011;68477;42.698;23.342;2024-02-21T13:55:48;10.55;;;6.00;;
79076;SDS011;68477;42.698;23.342;2024-02-21T13:58:15;14.02;;;6.45;;
79076;SDS011;68477;42.698;23.342;2024-02-21T14:00:41;11.48;;;6.97;;
79076;SDS011;68477;42.698;23.342;2024-02-21T14:03:06;14.93;;;7.47;;
79076;SDS011;68477;42.698;23.342;2024-02-21T14:05:32;12.43;;;6.45;;
79076;SDS011;68477;42.698;23.342;2024-02-21T14:07:57;12.70;;;7.18;;
79076;SDS011;68477;42.698;23.342;2024-02-21T14:10:23;9.38;;;6.28;;
79076;SDS011;68477;42.698;23.342;2024-02-21T14:12:49;10.20;;;6.05;;
79076;SDS011;68477;42.698;23.342;2024-02-21T14:15:14;10.18;;;6.13;;
79076;SDS011;68477;42.698;23.342;2024-02-21T14:17:41;11.38;;;5.53;;
79076;SDS011;68477;42.698;23.342;2024-02-21T14:20:07;9.80;;;5.22;;
79076;SDS011;68477;42.698;23.342;2024-02-21T14:22:33;8.43;;;6.05;;
79076;SDS011;68477;42.698;23.342;2024-02-21T14:24:59;8.27;;;5.93;;
79076;SDS011;68477;42.698;23.342;2024-02-21T14:27:25;11.02;;;6.10;;
79076;SDS011;68477;42.698;23.342;2024-02-21T14:29:50;10.82;;;5.68;;
79076;SDS011;68477;42.698;23.342;2024-02-21T14:32:16;10.23;;;5.53;;
79076;SDS011;68477;42.698;23.342;2024-02-21T14:34:41;11.02;;;6.60;;